sensor_id;sensor_type;location;lat;lon;timestamp;temperature;humidity
18777;DHT22;9517;51.174;4.160;2023-03-14T00:01:22;10.70;99.90
18777;DHT22;9517;51.174;4.160;2023-03-14T00:03:50;10.70;99.90
18777;DHT22;9517;51.174;4.160;2023-03-14T00:06:18;10.70;99.90
18777;DHT22;9517;51.174;4.160;2023-03-14T00:08:45;10.60;99.90
18777;DHT22;9517;51.174;4.160;2023-03-14T00:11:14;10.50;99.90
18777;DHT22;9517;51.174;4.160;2023-03-14T00:13:44;10.50;99.90
18777;DHT22;9517;51.174;4.160;2023-03-14T00:16:13;10.50;99.90
18777;DHT22;9517;51.174;4.160;2023-03-14T00:18:40;10.50;99.90
18777;DHT22;9517;51.174;4.160;2023-03-14T00:21:09;10.40;99.90
18777;DHT22;9517;51.174;4.160;2023-03-14T00:23:38;10.50;99.90
18777;DHT22;9517;51.174;4.160;2023-03-14T00:26:06;10.40;99.90
18777;DHT22;9517;51.174;4.160;2023-03-14T00:28:34;10.40;99.90
18777;DHT22;9517;51.174;4.160;2023-03-14T00:31:04;10.40;99.90
18777;DHT22;9517;51.174;4.160;2023-03-14T00:33:31;10.40;99.90
18777;DHT22;9517;51.174;4.160;2023-03-14T00:36:00;10.50;99.90
18777;DHT22;9517;51.174;4.160;2023-03-14T00:38:27;10.50;99.90
18777;DHT22;9517;51.174;4.160;2023-03-14T00:40:54;10.50;99.90
18777;DHT22;9517;51.174;4.160;2023-03-14T00:43:22;10.50;99.90
18777;DHT22;9517;51.174;4.160;2023-03-14T00:45:50;10.50;99.90
18777;DHT22;9517;51.174;4.160;2023-03-14T00:48:19;10.50;99.90
18777;DHT22;9517;51.174;4.160;2023-03-14T00:50:47;10.50;99.90
18777;DHT22;9517;51.174;4.160;2023-03-14T00:53:14;10.50;99.90
18777;DHT22;9517;51.174;4.160;2023-03-14T00:55:42;10.50;99.90
18777;DHT22;9517;51.174;4.160;2023-03-14T00:58:10;10.40;99.90
18777;DHT22;9517;51.174;4.160;2023-03-14T01:00:37;10.40;99.90
18777;DHT22;9517;51.174;4.160;2023-03-14T01:03:04;10.40;99.90
18777;DHT22;9517;51.174;4.160;2023-03-14T01:05:33;10.40;99.90
18777;DHT22;9517;51.174;4.160;2023-03-14T01:08:01;10.40;99.90
18777;DHT22;9517;51.174;4.160;2023-03-14T01:10:28;10.30;99.90
18777;DHT22;9517;51.174;4.160;2023-03-14T01:12:55;10.30;99.90
18777;DHT22;9517;51.174;4.160;2023-03-14T01:15:22;10.30;99.90
18777;DHT22;9517;51.174;4.160;2023-03-14T01:17:49;10.30;99.90
18777;DHT22;9517;51.174;4.160;2023-03-14T01:20:17;10.30;99.90
18777;DHT22;9517;51.174;4.160;2023-03-14T01:22:45;10.30;99.90
18777;DHT22;9517;51.174;4.160;2023-03-14T01:25:14;10.20;99.90
18777;DHT22;9517;51.174;4.160;2023-03-14T01:27:41;10.20;99.90
18777;DHT22;9517;51.174;4.160;2023-03-14T01:30:09;10.20;99.90
18777;DHT22;9517;51.174;4.160;2023-03-14T01:32:37;10.20;99.90
18777;DHT22;9517;51.174;4.160;2023-03-14T01:35:05;10.30;99.90
18777;DHT22;9517;51.174;4.160;2023-03-14T01:37:32;10.30;99.90
18777;DHT22;9517;51.174;4.160;2023-03-14T01:40:00;10.40;99.90
18777;DHT22;9517;51.174;4.160;2023-03-14T01:42:29;10.40;99.90
18777;DHT22;9517;51.174;4.160;2023-03-14T01:44:57;10.40;99.90
18777;DHT22;9517;51.174;4.160;2023-03-14T01:47:25;10.40;99.90
18777;DHT22;9517;51.174;4.160;2023-03-14T01:49:55;10.40;99.90
18777;DHT22;9517;51.174;4.160;2023-03-14T01:52:27;10.50;99.90
18777;DHT22;9517;51.174;4.160;2023-03-14T01:54:57;10.40;99.90
18777;DHT22;9517;51.174;4.160;2023-03-14T01:57:29;10.30;99.90
18777;DHT22;9517;51.174;4.160;2023-03-14T01:59:59;10.40;99.90
18777;DHT22;9517;51.174;4.160;2023-03-14T02:02:29;10.30;99.90
18777;DHT22;9517;51.174;4.160;2023-03-14T02:04:59;10.40;99.90
18777;DHT22;9517;51.174;4.160;2023-03-14T02:07:32;10.30;99.90
18777;DHT22;9517;51.174;4.160;2023-03-14T02:10:02;10.30;99.90
18777;DHT22;9517;51.174;4.160;2023-03-14T02:12:31;10.40;99.90
18777;DHT22;9517;51.174;4.160;2023-03-14T02:14:59;10.40;99.90
18777;DHT22;9517;51.174;4.160;2023-03-14T02:17:26;10.40;99.90
18777;DHT22;9517;51.174;4.160;2023-03-14T02:20:22;10.50;99.90
18777;DHT22;9517;51.174;4.160;2023-03-14T02:22:52;10.40;99.90
18777;DHT22;9517;51.174;4.160;2023-03-14T02:25:24;10.40;99.90
18777;DHT22;9517;51.174;4.160;2023-03-14T02:27:56;10.40;99.90
18777;DHT22;9517;51.174;4.160;2023-03-14T02:30:25;10.50;99.90
18777;DHT22;9517;51.174;4.160;2023-03-14T02:32:57;10.50;99.90
18777;DHT22;9517;51.174;4.160;2023-03-14T02:35:27;10.50;99.90
18777;DHT22;9517;51.174;4.160;2023-03-14T02:38:00;10.50;99.90
18777;DHT22;9517;51.174;4.160;2023-03-14T02:40:29;10.50;99.90
18777;DHT22;9517;51.174;4.160;2023-03-14T02:42:57;10.50;99.90
18777;DHT22;9517;51.174;4.160;2023-03-14T02:45:42;10.50;99.90
18777;DHT22;9517;51.174;4.160;2023-03-14T02:48:14;10.60;99.90
18777;DHT22;9517;51.174;4.160;2023-03-14T02:50:43;10.60;99.90
18777;DHT22;9517;51.174;4.160;2023-03-14T02:53:15;10.70;99.90
18777;DHT22;9517;51.174;4.160;2023-03-14T02:55:45;10.60;99.90
18777;DHT22;9517;51.174;4.160;2023-03-14T02:58:14;10.60;99.90
18777;DHT22;9517;51.174;4.160;2023-03-14T03:00:41;10.70;99.90
18777;DHT22;9517;51.174;4.160;2023-03-14T03:03:08;10.70;99.90
18777;DHT22;9517;51.174;4.160;2023-03-14T03:05:35;10.70;99.90
18777;DHT22;9517;51.174;4.160;2023-03-14T03:08:03;10.70;99.90
18777;DHT22;9517;51.174;4.160;2023-03-14T03:10:30;10.70;99.90
18777;DHT22;9517;51.174;4.160;2023-03-14T03:12:58;10.50;99.90
18777;DHT22;9517;51.174;4.160;2023-03-14T03:15:27;10.50;99.90
18777;DHT22;9517;51.174;4.160;2023-03-14T03:17:54;10.40;99.90
18777;DHT22;9517;51.174;4.160;2023-03-14T03:20:21;10.30;99.90
18777;DHT22;9517;51.174;4.160;2023-03-14T03:22:48;10.20;99.90
18777;DHT22;9517;51.174;4.160;2023-03-14T03:25:15;10.20;99.90
18777;DHT22;9517;51.174;4.160;2023-03-14T03:27:42;10.20;99.90
18777;DHT22;9517;51.174;4.160;2023-03-14T03:30:10;10.20;99.90
18777;DHT22;9517;51.174;4.160;2023-03-14T03:32:39;10.30;99.90
18777;DHT22;9517;51.174;4.160;2023-03-14T03:35:06;10.30;99.90
18777;DHT22;9517;51.174;4.160;2023-03-14T03:37:34;10.20;99.90
18777;DHT22;9517;51.174;4.160;2023-03-14T03:40:02;10.30;99.90
18777;DHT22;9517;51.174;4.160;2023-03-14T03:42:31;10.40;99.90
18777;DHT22;9517;51.174;4.160;2023-03-14T03:44:59;10.40;99.90
18777;DHT22;9517;51.174;4.160;2023-03-14T03:47:26;10.30;99.90
18777;DHT22;9517;51.174;4.160;2023-03-14T03:49:54;10.30;99.90
18777;DHT22;9517;51.174;4.160;2023-03-14T03:52:22;10.20;99.90
18777;DHT22;9517;51.174;4.160;2023-03-14T03:54:49;10.30;99.90
18777;DHT22;9517;51.174;4.160;2023-03-14T03:57:16;10.30;99.90
18777;DHT22;9517;51.174;4.160;2023-03-14T03:59:43;10.20;99.90
18777;DHT22;9517;51.174;4.160;2023-03-14T04:02:10;10.20;99.90
18777;DHT22;9517;51.174;4.160;2023-03-14T04:04:37;10.20;99.90
18777;DHT22;9517;51.174;4.160;2023-03-14T04:07:05;10.30;99.90
18777;DHT22;9517;51.174;4.160;2023-03-14T04:09:32;10.30;99.90
18777;DHT22;9517;51.174;4.160;2023-03-14T04:11:59;10.20;99.90
18777;DHT22;9517;51.174;4.160;2023-03-14T04:14:27;10.20;99.90
18777;DHT22;9517;51.174;4.160;2023-03-14T04:16:54;10.20;99.90
18777;DHT22;9517;51.174;4.160;2023-03-14T04:19:21;10.30;99.90
18777;DHT22;9517;51.174;4.160;2023-03-14T04:21:48;10.40;99.90
18777;DHT22;9517;51.174;4.160;2023-03-14T04:24:16;10.50;99.90
18777;DHT22;9517;51.174;4.160;2023-03-14T04:26:43;10.50;99.90
18777;DHT22;9517;51.174;4.160;2023-03-14T04:29:10;10.40;99.90
18777;DHT22;9517;51.174;4.160;2023-03-14T04:31:37;10.20;99.90
18777;DHT22;9517;51.174;4.160;2023-03-14T04:34:04;10.20;99.90
18777;DHT22;9517;51.174;4.160;2023-03-14T04:36:31;10.10;99.90
18777;DHT22;9517;51.174;4.160;2023-03-14T04:38:58;10.10;99.90
18777;DHT22;9517;51.174;4.160;2023-03-14T04:41:27;10.10;99.90
18777;DHT22;9517;51.174;4.160;2023-03-14T04:43:54;10.10;99.90
18777;DHT22;9517;51.174;4.160;2023-03-14T04:46:21;10.10;99.90
18777;DHT22;9517;51.174;4.160;2023-03-14T04:48:48;10.10;99.90
18777;DHT22;9517;51.174;4.160;2023-03-14T04:51:15;10.00;99.90
18777;DHT22;9517;51.174;4.160;2023-03-14T04:53:42;10.00;99.90
18777;DHT22;9517;51.174;4.160;2023-03-14T04:56:09;9.90;99.90
18777;DHT22;9517;51.174;4.160;2023-03-14T04:58:39;9.90;99.90
18777;DHT22;9517;51.174;4.160;2023-03-14T05:01:07;10.00;99.90
18777;DHT22;9517;51.174;4.160;2023-03-14T05:03:34;9.90;99.90
18777;DHT22;9517;51.174;4.160;2023-03-14T05:06:04;10.00;99.90
18777;DHT22;9517;51.174;4.160;2023-03-14T05:08:31;10.00;99.90
18777;DHT22;9517;51.174;4.160;2023-03-14T05:10:58;10.00;99.90
18777;DHT22;9517;51.174;4.160;2023-03-14T05:13:25;10.00;99.90
18777;DHT22;9517;51.174;4.160;2023-03-14T05:16:01;10.00;99.90
18777;DHT22;9517;51.174;4.160;2023-03-14T05:18:29;10.10;99.90
18777;DHT22;9517;51.174;4.160;2023-03-14T05:20:56;10.10;99.90
18777;DHT22;9517;51.174;4.160;2023-03-14T05:23:23;10.20;99.90
18777;DHT22;9517;51.174;4.160;2023-03-14T05:25:50;10.10;99.90
18777;DHT22;9517;51.174;4.160;2023-03-14T05:28:17;10.20;99.90
18777;DHT22;9517;51.174;4.160;2023-03-14T05:30:44;10.20;99.90
18777;DHT22;9517;51.174;4.160;2023-03-14T05:33:13;10.20;99.90
18777;DHT22;9517;51.174;4.160;2023-03-14T05:35:41;10.20;99.90
18777;DHT22;9517;51.174;4.160;2023-03-14T05:38:08;10.10;99.90
18777;DHT22;9517;51.174;4.160;2023-03-14T05:40:35;10.10;99.90
18777;DHT22;9517;51.174;4.160;2023-03-14T05:43:02;10.10;99.90
18777;DHT22;9517;51.174;4.160;2023-03-14T05:45:29;10.10;99.90
18777;DHT22;9517;51.174;4.160;2023-03-14T05:47:56;10.00;99.90
18777;DHT22;9517;51.174;4.160;2023-03-14T05:50:25;10.00;99.90
18777;DHT22;9517;51.174;4.160;2023-03-14T05:52:52;9.90;99.90
18777;DHT22;9517;51.174;4.160;2023-03-14T05:55:19;9.90;99.90
18777;DHT22;9517;51.174;4.160;2023-03-14T05:57:46;9.90;99.90
18777;DHT22;9517;51.174;4.160;2023-03-14T06:00:14;9.90;99.90
18777;DHT22;9517;51.174;4.160;2023-03-14T06:02:41;9.90;99.90
18777;DHT22;9517;51.174;4.160;2023-03-14T06:05:08;9.80;99.90
18777;DHT22;9517;51.174;4.160;2023-03-14T06:07:37;9.90;99.90
18777;DHT22;9517;51.174;4.160;2023-03-14T06:10:05;9.80;99.90
18777;DHT22;9517;51.174;4.160;2023-03-14T06:12:32;9.90;99.90
18777;DHT22;9517;51.174;4.160;2023-03-14T06:14:59;9.90;99.90
18777;DHT22;9517;51.174;4.160;2023-03-14T06:17:26;9.60;99.90
18777;DHT22;9517;51.174;4.160;2023-03-14T06:19:53;9.10;99.90
18777;DHT22;9517;51.174;4.160;2023-03-14T06:22:20;8.70;99.90
18777;DHT22;9517;51.174;4.160;2023-03-14T06:24:49;8.40;99.90
18777;DHT22;9517;51.174;4.160;2023-03-14T06:27:16;8.20;99.90
18777;DHT22;9517;51.174;4.160;2023-03-14T06:29:43;8.10;99.90
18777;DHT22;9517;51.174;4.160;2023-03-14T06:32:10;8.00;99.90
18777;DHT22;9517;51.174;4.160;2023-03-14T06:34:37;7.90;99.90
18777;DHT22;9517;51.174;4.160;2023-03-14T06:37:06;7.90;99.90
18777;DHT22;9517;51.174;4.160;2023-03-14T06:39:34;7.70;99.90
18777;DHT22;9517;51.174;4.160;2023-03-14T06:42:02;7.60;99.90
18777;DHT22;9517;51.174;4.160;2023-03-14T06:44:29;7.50;99.90
18777;DHT22;9517;51.174;4.160;2023-03-14T06:46:56;7.50;99.90
18777;DHT22;9517;51.174;4.160;2023-03-14T06:49:24;7.40;99.90
18777;DHT22;9517;51.174;4.160;2023-03-14T06:51:51;7.30;99.90
18777;DHT22;9517;51.174;4.160;2023-03-14T06:54:18;7.20;99.90
18777;DHT22;9517;51.174;4.160;2023-03-14T06:56:45;7.20;99.90
18777;DHT22;9517;51.174;4.160;2023-03-14T06:59:13;7.10;99.90
18777;DHT22;9517;51.174;4.160;2023-03-14T07:01:40;7.10;99.90
18777;DHT22;9517;51.174;4.160;2023-03-14T07:04:08;7.10;99.90
18777;DHT22;9517;51.174;4.160;2023-03-14T07:06:36;7.10;99.90
18777;DHT22;9517;51.174;4.160;2023-03-14T07:09:03;7.20;99.90
18777;DHT22;9517;51.174;4.160;2023-03-14T07:11:30;7.20;99.90
18777;DHT22;9517;51.174;4.160;2023-03-14T07:13:57;7.20;99.90
18777;DHT22;9517;51.174;4.160;2023-03-14T07:16:26;7.10;99.90
18777;DHT22;9517;51.174;4.160;2023-03-14T07:18:56;7.10;99.90
18777;DHT22;9517;51.174;4.160;2023-03-14T07:21:23;7.00;99.90
18777;DHT22;9517;51.174;4.160;2023-03-14T07:23:51;7.00;99.90
18777;DHT22;9517;51.174;4.160;2023-03-14T07:26:18;7.00;99.90
18777;DHT22;9517;51.174;4.160;2023-03-14T07:28:45;7.00;99.90
18777;DHT22;9517;51.174;4.160;2023-03-14T07:31:12;7.00;99.90
18777;DHT22;9517;51.174;4.160;2023-03-14T07:33:41;7.00;99.90
18777;DHT22;9517;51.174;4.160;2023-03-14T07:36:09;7.00;99.90
18777;DHT22;9517;51.174;4.160;2023-03-14T07:38:37;7.10;99.90
18777;DHT22;9517;51.174;4.160;2023-03-14T07:41:05;7.00;99.90
18777;DHT22;9517;51.174;4.160;2023-03-14T07:43:33;7.10;99.90
18777;DHT22;9517;51.174;4.160;2023-03-14T07:46:00;7.20;99.90
18777;DHT22;9517;51.174;4.160;2023-03-14T07:48:27;7.20;99.90
18777;DHT22;9517;51.174;4.160;2023-03-14T07:50:56;7.20;99.90
18777;DHT22;9517;51.174;4.160;2023-03-14T07:53:23;7.20;99.90
18777;DHT22;9517;51.174;4.160;2023-03-14T07:55:51;7.10;99.90
18777;DHT22;9517;51.174;4.160;2023-03-14T07:58:19;7.10;99.90
18777;DHT22;9517;51.174;4.160;2023-03-14T08:00:47;7.10;99.90
18777;DHT22;9517;51.174;4.160;2023-03-14T08:03:14;7.10;99.90
18777;DHT22;9517;51.174;4.160;2023-03-14T08:05:42;7.10;99.90
18777;DHT22;9517;51.174;4.160;2023-03-14T08:08:11;7.20;99.90
18777;DHT22;9517;51.174;4.160;2023-03-14T08:10:38;7.30;99.90
18777;DHT22;9517;51.174;4.160;2023-03-14T08:13:05;7.30;99.90
18777;DHT22;9517;51.174;4.160;2023-03-14T08:15:32;7.50;99.90
18777;DHT22;9517;51.174;4.160;2023-03-14T08:17:59;7.50;99.90
18777;DHT22;9517;51.174;4.160;2023-03-14T08:20:28;7.40;99.90
18777;DHT22;9517;51.174;4.160;2023-03-14T08:22:56;7.30;99.90
18777;DHT22;9517;51.174;4.160;2023-03-14T08:25:26;7.30;99.90
18777;DHT22;9517;51.174;4.160;2023-03-14T08:27:54;7.20;99.90
18777;DHT22;9517;51.174;4.160;2023-03-14T08:30:22;7.30;99.90
18777;DHT22;9517;51.174;4.160;2023-03-14T08:32:49;7.30;99.90
18777;DHT22;9517;51.174;4.160;2023-03-14T08:35:16;7.30;99.90
18777;DHT22;9517;51.174;4.160;2023-03-14T08:37:43;7.40;99.90
18777;DHT22;9517;51.174;4.160;2023-03-14T08:40:11;7.50;99.90
18777;DHT22;9517;51.174;4.160;2023-03-14T08:42:40;7.50;99.90
18777;DHT22;9517;51.174;4.160;2023-03-14T08:45:08;7.50;99.90
18777;DHT22;9517;51.174;4.160;2023-03-14T08:47:35;7.50;99.90
18777;DHT22;9517;51.174;4.160;2023-03-14T08:50:03;7.50;99.90
18777;DHT22;9517;51.174;4.160;2023-03-14T08:52:31;7.50;99.90
18777;DHT22;9517;51.174;4.160;2023-03-14T08:54:58;7.40;99.90
18777;DHT22;9517;51.174;4.160;2023-03-14T08:57:26;7.40;99.90
18777;DHT22;9517;51.174;4.160;2023-03-14T08:59:56;7.40;99.90
18777;DHT22;9517;51.174;4.160;2023-03-14T09:02:23;7.30;99.90
18777;DHT22;9517;51.174;4.160;2023-03-14T09:04:51;7.40;99.90
18777;DHT22;9517;51.174;4.160;2023-03-14T09:07:18;7.50;99.90
18777;DHT22;9517;51.174;4.160;2023-03-14T09:09:45;7.70;99.90
18777;DHT22;9517;51.174;4.160;2023-03-14T09:12:13;7.90;99.90
18777;DHT22;9517;51.174;4.160;2023-03-14T09:14:40;7.80;99.90
18777;DHT22;9517;51.174;4.160;2023-03-14T09:17:08;7.40;99.90
18777;DHT22;9517;51.174;4.160;2023-03-14T09:19:35;7.30;99.90
18777;DHT22;9517;51.174;4.160;2023-03-14T09:22:03;7.10;99.90
18777;DHT22;9517;51.174;4.160;2023-03-14T09:24:30;7.00;99.90
18777;DHT22;9517;51.174;4.160;2023-03-14T09:26:57;6.80;99.90
18777;DHT22;9517;51.174;4.160;2023-03-14T09:29:25;6.90;99.90
18777;DHT22;9517;51.174;4.160;2023-03-14T09:31:52;6.80;99.90
18777;DHT22;9517;51.174;4.160;2023-03-14T09:34:20;6.80;99.90
18777;DHT22;9517;51.174;4.160;2023-03-14T09:36:47;6.80;99.90
18777;DHT22;9517;51.174;4.160;2023-03-14T09:39:15;6.80;99.90
18777;DHT22;9517;51.174;4.160;2023-03-14T09:41:45;6.70;99.90
18777;DHT22;9517;51.174;4.160;2023-03-14T09:44:15;6.70;99.90
18777;DHT22;9517;51.174;4.160;2023-03-14T09:46:45;6.70;99.90
18777;DHT22;9517;51.174;4.160;2023-03-14T09:49:21;6.70;99.90
18777;DHT22;9517;51.174;4.160;2023-03-14T09:51:53;6.70;99.90
18777;DHT22;9517;51.174;4.160;2023-03-14T09:54:31;6.70;99.90
18777;DHT22;9517;51.174;4.160;2023-03-14T09:56:58;6.70;99.90
18777;DHT22;9517;51.174;4.160;2023-03-14T09:59:27;6.60;99.90
18777;DHT22;9517;51.174;4.160;2023-03-14T10:01:56;6.70;99.90
18777;DHT22;9517;51.174;4.160;2023-03-14T10:04:27;6.70;99.90
18777;DHT22;9517;51.174;4.160;2023-03-14T10:06:55;6.70;99.90
18777;DHT22;9517;51.174;4.160;2023-03-14T10:09:23;6.80;99.90
18777;DHT22;9517;51.174;4.160;2023-03-14T10:11:54;6.90;99.90
18777;DHT22;9517;51.174;4.160;2023-03-14T10:14:32;6.80;99.90
18777;DHT22;9517;51.174;4.160;2023-03-14T10:17:08;6.90;99.90
18777;DHT22;9517;51.174;4.160;2023-03-14T10:19:37;7.10;99.90
18777;DHT22;9517;51.174;4.160;2023-03-14T10:22:05;7.20;99.90
18777;DHT22;9517;51.174;4.160;2023-03-14T10:24:34;7.40;99.90
18777;DHT22;9517;51.174;4.160;2023-03-14T10:27:04;7.60;99.90
18777;DHT22;9517;51.174;4.160;2023-03-14T10:29:32;7.80;99.90
18777;DHT22;9517;51.174;4.160;2023-03-14T10:32:01;8.10;99.90
18777;DHT22;9517;51.174;4.160;2023-03-14T10:34:30;8.10;99.90
18777;DHT22;9517;51.174;4.160;2023-03-14T10:37:06;8.30;99.90
18777;DHT22;9517;51.174;4.160;2023-03-14T10:39:39;8.30;99.90
18777;DHT22;9517;51.174;4.160;2023-03-14T10:42:16;8.30;99.90
18777;DHT22;9517;51.174;4.160;2023-03-14T10:44:45;8.50;99.90
18777;DHT22;9517;51.174;4.160;2023-03-14T10:47:17;8.30;99.90
18777;DHT22;9517;51.174;4.160;2023-03-14T10:49:45;8.30;99.90
18777;DHT22;9517;51.174;4.160;2023-03-14T10:52:19;8.10;99.90
18777;DHT22;9517;51.174;4.160;2023-03-14T10:54:49;8.10;99.90
18777;DHT22;9517;51.174;4.160;2023-03-14T10:57:20;8.20;99.90
18777;DHT22;9517;51.174;4.160;2023-03-14T10:59:47;8.40;99.90
18777;DHT22;9517;51.174;4.160;2023-03-14T11:02:44;8.50;99.90
18777;DHT22;9517;51.174;4.160;2023-03-14T11:05:25;8.60;99.90
18777;DHT22;9517;51.174;4.160;2023-03-14T11:07:58;8.40;99.90
18777;DHT22;9517;51.174;4.160;2023-03-14T11:10:31;8.10;99.90
18777;DHT22;9517;51.174;4.160;2023-03-14T11:13:08;8.00;99.90
18777;DHT22;9517;51.174;4.160;2023-03-14T11:15:42;7.80;99.90
18777;DHT22;9517;51.174;4.160;2023-03-14T11:18:36;7.80;99.90
18777;DHT22;9517;51.174;4.160;2023-03-14T11:21:08;7.70;99.90
18777;DHT22;9517;51.174;4.160;2023-03-14T11:23:44;7.70;99.90
18777;DHT22;9517;51.174;4.160;2023-03-14T11:26:25;7.70;99.90
18777;DHT22;9517;51.174;4.160;2023-03-14T11:28:57;7.90;99.90
18777;DHT22;9517;51.174;4.160;2023-03-14T11:31:27;7.70;99.90
18777;DHT22;9517;51.174;4.160;2023-03-14T11:33:59;7.40;99.90
18777;DHT22;9517;51.174;4.160;2023-03-14T11:36:30;7.10;99.90
18777;DHT22;9517;51.174;4.160;2023-03-14T11:38:59;7.30;99.90
18777;DHT22;9517;51.174;4.160;2023-03-14T11:41:31;7.30;99.90
18777;DHT22;9517;51.174;4.160;2023-03-14T11:44:04;7.50;99.90
18777;DHT22;9517;51.174;4.160;2023-03-14T11:46:39;7.60;99.90
18777;DHT22;9517;51.174;4.160;2023-03-14T11:49:10;8.00;99.90
18777;DHT22;9517;51.174;4.160;2023-03-14T11:51:39;8.40;99.90
18777;DHT22;9517;51.174;4.160;2023-03-14T11:54:16;8.70;99.90
18777;DHT22;9517;51.174;4.160;2023-03-14T11:56:47;8.70;99.90
18777;DHT22;9517;51.174;4.160;2023-03-14T11:59:18;9.00;99.90
18777;DHT22;9517;51.174;4.160;2023-03-14T12:01:53;8.90;99.90
18777;DHT22;9517;51.174;4.160;2023-03-14T12:04:32;8.80;99.90
18777;DHT22;9517;51.174;4.160;2023-03-14T12:07:05;8.30;99.90
18777;DHT22;9517;51.174;4.160;2023-03-14T12:09:36;7.60;99.90
18777;DHT22;9517;51.174;4.160;2023-03-14T12:12:04;7.20;99.90
18777;DHT22;9517;51.174;4.160;2023-03-14T12:14:33;6.90;99.90
18777;DHT22;9517;51.174;4.160;2023-03-14T12:17:05;6.80;99.90
18777;DHT22;9517;51.174;4.160;2023-03-14T12:19:39;6.70;99.90
18777;DHT22;9517;51.174;4.160;2023-03-14T12:22:25;6.80;99.90
18777;DHT22;9517;51.174;4.160;2023-03-14T12:24:59;7.10;99.90
18777;DHT22;9517;51.174;4.160;2023-03-14T12:27:46;7.30;99.90
18777;DHT22;9517;51.174;4.160;2023-03-14T12:30:24;7.60;99.90
18777;DHT22;9517;51.174;4.160;2023-03-14T12:36:11;7.90;99.90
18777;DHT22;9517;51.174;4.160;2023-03-14T12:39:22;8.00;99.90
18777;DHT22;9517;51.174;4.160;2023-03-14T12:42:04;8.20;99.90
18777;DHT22;9517;51.174;4.160;2023-03-14T12:44:40;8.10;99.90
18777;DHT22;9517;51.174;4.160;2023-03-14T12:47:47;8.40;99.90
18777;DHT22;9517;51.174;4.160;2023-03-14T12:50:25;8.60;99.90
18777;DHT22;9517;51.174;4.160;2023-03-14T12:53:24;8.50;99.90
18777;DHT22;9517;51.174;4.160;2023-03-14T12:55:59;8.30;99.90
18777;DHT22;9517;51.174;4.160;2023-03-14T12:58:32;8.20;99.90
18777;DHT22;9517;51.174;4.160;2023-03-14T13:01:03;8.10;99.90
18777;DHT22;9517;51.174;4.160;2023-03-14T13:03:39;8.30;99.90
18777;DHT22;9517;51.174;4.160;2023-03-14T13:06:09;8.40;99.90
18777;DHT22;9517;51.174;4.160;2023-03-14T13:08:39;8.60;99.90
18777;DHT22;9517;51.174;4.160;2023-03-14T13:11:09;8.60;99.90
18777;DHT22;9517;51.174;4.160;2023-03-14T13:13:42;8.70;99.90
18777;DHT22;9517;51.174;4.160;2023-03-14T13:16:15;8.70;99.90
18777;DHT22;9517;51.174;4.160;2023-03-14T13:18:44;8.60;99.90
18777;DHT22;9517;51.174;4.160;2023-03-14T13:21:14;8.50;99.90
18777;DHT22;9517;51.174;4.160;2023-03-14T13:23:56;8.50;99.90
18777;DHT22;9517;51.174;4.160;2023-03-14T13:26:25;8.60;99.90
18777;DHT22;9517;51.174;4.160;2023-03-14T13:29:00;8.70;99.90
18777;DHT22;9517;51.174;4.160;2023-03-14T13:31:27;8.70;99.90
18777;DHT22;9517;51.174;4.160;2023-03-14T13:33:59;8.70;99.90
18777;DHT22;9517;51.174;4.160;2023-03-14T13:36:27;9.00;99.90
18777;DHT22;9517;51.174;4.160;2023-03-14T13:38:59;9.00;99.90
18777;DHT22;9517;51.174;4.160;2023-03-14T13:41:27;9.30;99.90
18777;DHT22;9517;51.174;4.160;2023-03-14T13:44:02;9.20;99.90
18777;DHT22;9517;51.174;4.160;2023-03-14T13:46:30;9.20;99.90
18777;DHT22;9517;51.174;4.160;2023-03-14T13:49:02;9.10;99.90
18777;DHT22;9517;51.174;4.160;2023-03-14T13:51:31;9.20;99.90
18777;DHT22;9517;51.174;4.160;2023-03-14T13:53:59;9.10;99.90
18777;DHT22;9517;51.174;4.160;2023-03-14T13:56:29;8.90;99.90
18777;DHT22;9517;51.174;4.160;2023-03-14T13:58:57;8.60;99.90
18777;DHT22;9517;51.174;4.160;2023-03-14T14:01:27;8.30;99.90
18777;DHT22;9517;51.174;4.160;2023-03-14T14:03:58;8.30;99.90
18777;DHT22;9517;51.174;4.160;2023-03-14T14:06:32;7.90;99.90
18777;DHT22;9517;51.174;4.160;2023-03-14T14:09:02;7.60;99.90
18777;DHT22;9517;51.174;4.160;2023-03-14T14:11:38;7.30;99.90
18777;DHT22;9517;51.174;4.160;2023-03-14T14:14:10;7.30;99.90
18777;DHT22;9517;51.174;4.160;2023-03-14T14:16:40;7.40;99.90
18777;DHT22;9517;51.174;4.160;2023-03-14T14:19:08;7.40;99.90
18777;DHT22;9517;51.174;4.160;2023-03-14T14:21:35;7.60;99.90
18777;DHT22;9517;51.174;4.160;2023-03-14T14:24:03;7.70;99.90
18777;DHT22;9517;51.174;4.160;2023-03-14T14:26:31;7.80;99.90
18777;DHT22;9517;51.174;4.160;2023-03-14T14:29:02;7.90;99.90
18777;DHT22;9517;51.174;4.160;2023-03-14T14:31:29;8.10;99.90
18777;DHT22;9517;51.174;4.160;2023-03-14T14:33:59;8.00;99.90
18777;DHT22;9517;51.174;4.160;2023-03-14T14:36:29;8.00;99.90
18777;DHT22;9517;51.174;4.160;2023-03-14T14:38:59;8.00;99.90
18777;DHT22;9517;51.174;4.160;2023-03-14T14:41:31;8.00;99.90
18777;DHT22;9517;51.174;4.160;2023-03-14T14:43:59;7.80;99.90
18777;DHT22;9517;51.174;4.160;2023-03-14T14:46:29;7.90;99.90
18777;DHT22;9517;51.174;4.160;2023-03-14T14:49:03;8.00;99.90
18777;DHT22;9517;51.174;4.160;2023-03-14T14:51:33;8.10;99.90
18777;DHT22;9517;51.174;4.160;2023-03-14T14:54:04;8.30;99.90
18777;DHT22;9517;51.174;4.160;2023-03-14T14:56:37;8.30;99.90
18777;DHT22;9517;51.174;4.160;2023-03-14T14:59:05;8.20;99.90
18777;DHT22;9517;51.174;4.160;2023-03-14T15:01:34;7.90;99.90
18777;DHT22;9517;51.174;4.160;2023-03-14T15:04:11;7.90;99.90
18777;DHT22;9517;51.174;4.160;2023-03-14T15:06:40;7.90;99.90
18777;DHT22;9517;51.174;4.160;2023-03-14T15:09:08;7.90;99.90
18777;DHT22;9517;51.174;4.160;2023-03-14T15:11:36;7.80;99.90
18777;DHT22;9517;51.174;4.160;2023-03-14T15:14:04;7.70;99.90
18777;DHT22;9517;51.174;4.160;2023-03-14T15:16:32;7.70;99.90
18777;DHT22;9517;51.174;4.160;2023-03-14T15:19:01;7.70;99.90
18777;DHT22;9517;51.174;4.160;2023-03-14T15:21:32;7.70;99.90
18777;DHT22;9517;51.174;4.160;2023-03-14T15:23:59;7.60;99.90
18777;DHT22;9517;51.174;4.160;2023-03-14T15:26:27;7.40;99.90
18777;DHT22;9517;51.174;4.160;2023-03-14T15:28:54;7.50;99.90
18777;DHT22;9517;51.174;4.160;2023-03-14T15:31:22;7.40;99.90
18777;DHT22;9517;51.174;4.160;2023-03-14T15:33:49;7.50;99.90
18777;DHT22;9517;51.174;4.160;2023-03-14T15:36:22;7.60;99.90
18777;DHT22;9517;51.174;4.160;2023-03-14T15:38:52;7.60;99.90
18777;DHT22;9517;51.174;4.160;2023-03-14T15:41:20;7.50;99.90
18777;DHT22;9517;51.174;4.160;2023-03-14T15:43:47;7.40;99.90
18777;DHT22;9517;51.174;4.160;2023-03-14T15:46:15;7.40;99.90
18777;DHT22;9517;51.174;4.160;2023-03-14T15:48:43;7.30;99.90
18777;DHT22;9517;51.174;4.160;2023-03-14T15:51:11;7.40;99.90
18777;DHT22;9517;51.174;4.160;2023-03-14T15:53:38;7.40;99.90
18777;DHT22;9517;51.174;4.160;2023-03-14T15:56:10;7.50;99.90
18777;DHT22;9517;51.174;4.160;2023-03-14T15:58:38;7.40;99.90
18777;DHT22;9517;51.174;4.160;2023-03-14T16:01:06;7.40;99.90
18777;DHT22;9517;51.174;4.160;2023-03-14T16:03:34;7.50;99.90
18777;DHT22;9517;51.174;4.160;2023-03-14T16:06:02;7.60;99.90
18777;DHT22;9517;51.174;4.160;2023-03-14T16:08:29;7.60;99.90
18777;DHT22;9517;51.174;4.160;2023-03-14T16:10:58;7.40;99.90
18777;DHT22;9517;51.174;4.160;2023-03-14T16:13:26;7.60;99.90
18777;DHT22;9517;51.174;4.160;2023-03-14T16:15:57;7.70;99.90